sensor_id;sensor_type;location;lat;lon;timestamp;temperature;humidity
80279;DHT22;70683;52.492;13.416;2024-03-08T00:01:01;5.50;71.40
80279;DHT22;70683;52.492;13.416;2024-03-08T00:03:28;5.50;71.50
80279;DHT22;70683;52.492;13.416;2024-03-08T00:05:55;5.40;72.30
80279;DHT22;70683;52.492;13.416;2024-03-08T00:08:22;5.40;71.70
80279;DHT22;70683;52.492;13.416;2024-03-08T00:10:48;5.40;71.80
80279;DHT22;70683;52.492;13.416;2024-03-08T00:13:15;5.40;71.70
80279;DHT22;70683;52.492;13.416;2024-03-08T00:15:41;5.40;71.80
80279;DHT22;70683;52.492;13.416;2024-03-08T00:18:08;5.50;72.60
80279;DHT22;70683;52.492;13.416;2024-03-08T00:20:36;5.40;72.20
80279;DHT22;70683;52.492;13.416;2024-03-08T00:23:03;5.50;72.20
80279;DHT22;70683;52.492;13.416;2024-03-08T00:25:29;5.50;71.70
80279;DHT22;70683;52.492;13.416;2024-03-08T00:27:56;5.50;71.40
80279;DHT22;70683;52.492;13.416;2024-03-08T00:30:23;5.50;71.80
80279;DHT22;70683;52.492;13.416;2024-03-08T00:32:51;5.40;71.90
80279;DHT22;70683;52.492;13.416;2024-03-08T00:35:17;5.40;72.30
80279;DHT22;70683;52.492;13.416;2024-03-08T00:37:44;5.40;72.50
80279;DHT22;70683;52.492;13.416;2024-03-08T00:40:13;5.40;72.00
80279;DHT22;70683;52.492;13.416;2024-03-08T00:42:40;5.40;72.40
80279;DHT22;70683;52.492;13.416;2024-03-08T00:45:08;5.40;72.20
80279;DHT22;70683;52.492;13.416;2024-03-08T00:47:36;5.40;72.20
80279;DHT22;70683;52.492;13.416;2024-03-08T00:50:03;5.40;72.00
80279;DHT22;70683;52.492;13.416;2024-03-08T00:52:30;5.40;72.50
80279;DHT22;70683;52.492;13.416;2024-03-08T00:54:57;5.40;72.40
80279;DHT22;70683;52.492;13.416;2024-03-08T00:57:23;5.30;72.80
80279;DHT22;70683;52.492;13.416;2024-03-08T00:59:50;5.30;72.40
80279;DHT22;70683;52.492;13.416;2024-03-08T01:02:17;5.30;72.30
80279;DHT22;70683;52.492;13.416;2024-03-08T01:04:45;5.30;72.10
80279;DHT22;70683;52.492;13.416;2024-03-08T01:07:13;5.30;71.90
80279;DHT22;70683;52.492;13.416;2024-03-08T01:09:39;5.20;71.80
80279;DHT22;70683;52.492;13.416;2024-03-08T01:12:07;5.20;72.30
80279;DHT22;70683;52.492;13.416;2024-03-08T01:14:33;5.20;72.40
80279;DHT22;70683;52.492;13.416;2024-03-08T01:17:00;5.10;72.60
80279;DHT22;70683;52.492;13.416;2024-03-08T01:19:26;5.10;72.70
80279;DHT22;70683;52.492;13.416;2024-03-08T01:21:53;5.00;73.10
80279;DHT22;70683;52.492;13.416;2024-03-08T01:24:22;5.10;73.60
80279;DHT22;70683;52.492;13.416;2024-03-08T01:26:49;5.00;73.40
80279;DHT22;70683;52.492;13.416;2024-03-08T01:29:16;5.00;73.40
80279;DHT22;70683;52.492;13.416;2024-03-08T01:31:43;5.00;73.70
80279;DHT22;70683;52.492;13.416;2024-03-08T01:34:10;5.10;73.60
80279;DHT22;70683;52.492;13.416;2024-03-08T01:36:36;5.10;73.30
80279;DHT22;70683;52.492;13.416;2024-03-08T01:39:03;5.10;73.40
80279;DHT22;70683;52.492;13.416;2024-03-08T01:41:32;5.10;73.40
80279;DHT22;70683;52.492;13.416;2024-03-08T01:43:58;5.10;73.30
80279;DHT22;70683;52.492;13.416;2024-03-08T01:46:25;5.10;73.20
80279;DHT22;70683;52.492;13.416;2024-03-08T01:48:54;5.10;73.00
80279;DHT22;70683;52.492;13.416;2024-03-08T01:51:22;5.10;73.60
80279;DHT22;70683;52.492;13.416;2024-03-08T01:53:49;5.10;73.70
80279;DHT22;70683;52.492;13.416;2024-03-08T01:56:16;5.10;73.20
80279;DHT22;70683;52.492;13.416;2024-03-08T01:58:44;5.10;73.90
80279;DHT22;70683;52.492;13.416;2024-03-08T02:01:12;5.10;74.80
80279;DHT22;70683;52.492;13.416;2024-03-08T02:03:41;5.10;73.20
80279;DHT22;70683;52.492;13.416;2024-03-08T02:06:11;5.00;73.40
80279;DHT22;70683;52.492;13.416;2024-03-08T02:08:42;5.00;73.40
80279;DHT22;70683;52.492;13.416;2024-03-08T02:11:10;5.00;73.90
80279;DHT22;70683;52.492;13.416;2024-03-08T02:13:37;5.00;73.40
80279;DHT22;70683;52.492;13.416;2024-03-08T02:16:04;4.90;73.60
80279;DHT22;70683;52.492;13.416;2024-03-08T02:18:33;5.00;73.40
80279;DHT22;70683;52.492;13.416;2024-03-08T02:21:03;5.00;73.20
80279;DHT22;70683;52.492;13.416;2024-03-08T02:23:30;4.90;73.30
80279;DHT22;70683;52.492;13.416;2024-03-08T02:25:58;5.00;72.90
80279;DHT22;70683;52.492;13.416;2024-03-08T02:28:25;4.90;73.10
80279;DHT22;70683;52.492;13.416;2024-03-08T02:30:52;4.80;73.70
80279;DHT22;70683;52.492;13.416;2024-03-08T02:33:22;4.80;73.90
80279;DHT22;70683;52.492;13.416;2024-03-08T02:35:49;4.70;73.90
80279;DHT22;70683;52.492;13.416;2024-03-08T02:38:18;4.70;74.50
80279;DHT22;70683;52.492;13.416;2024-03-08T02:40:49;4.70;75.40
80279;DHT22;70683;52.492;13.416;2024-03-08T02:43:17;4.70;75.30
80279;DHT22;70683;52.492;13.416;2024-03-08T02:45:44;4.70;75.10
80279;DHT22;70683;52.492;13.416;2024-03-08T02:48:12;4.70;75.30
80279;DHT22;70683;52.492;13.416;2024-03-08T02:50:39;4.70;74.90
80279;DHT22;70683;52.492;13.416;2024-03-08T02:53:06;4.70;75.20
80279;DHT22;70683;52.492;13.416;2024-03-08T02:55:34;4.70;75.30
80279;DHT22;70683;52.492;13.416;2024-03-08T02:58:02;4.70;75.10
80279;DHT22;70683;52.492;13.416;2024-03-08T03:00:31;4.70;75.10
80279;DHT22;70683;52.492;13.416;2024-03-08T03:02:58;4.70;75.90
80279;DHT22;70683;52.492;13.416;2024-03-08T03:05:25;4.60;75.60
80279;DHT22;70683;52.492;13.416;2024-03-08T03:07:52;4.70;75.60
80279;DHT22;70683;52.492;13.416;2024-03-08T03:10:20;4.60;75.20
80279;DHT22;70683;52.492;13.416;2024-03-08T03:12:48;4.70;75.30
80279;DHT22;70683;52.492;13.416;2024-03-08T03:15:15;4.60;75.00
80279;DHT22;70683;52.492;13.416;2024-03-08T03:17:48;4.60;75.60
80279;DHT22;70683;52.492;13.416;2024-03-08T03:20:17;4.50;75.80
80279;DHT22;70683;52.492;13.416;2024-03-08T03:22:51;4.60;76.10
80279;DHT22;70683;52.492;13.416;2024-03-08T03:25:20;4.60;76.00
80279;DHT22;70683;52.492;13.416;2024-03-08T03:27:52;4.50;76.30
80279;DHT22;70683;52.492;13.416;2024-03-08T03:30:22;4.50;75.80
80279;DHT22;70683;52.492;13.416;2024-03-08T03:32:50;4.50;75.70
80279;DHT22;70683;52.492;13.416;2024-03-08T03:35:17;4.50;75.90
80279;DHT22;70683;52.492;13.416;2024-03-08T03:37:47;4.40;76.00
80279;DHT22;70683;52.492;13.416;2024-03-08T03:40:19;4.40;76.30
80279;DHT22;70683;52.492;13.416;2024-03-08T03:42:46;4.40;76.50
80279;DHT22;70683;52.492;13.416;2024-03-08T03:45:13;4.40;76.80
80279;DHT22;70683;52.492;13.416;2024-03-08T03:47:42;4.40;76.50
80279;DHT22;70683;52.492;13.416;2024-03-08T03:50:09;4.50;76.70
80279;DHT22;70683;52.492;13.416;2024-03-08T03:52:36;4.40;76.40
80279;DHT22;70683;52.492;13.416;2024-03-08T03:55:04;4.40;76.30
80279;DHT22;70683;52.492;13.416;2024-03-08T03:57:31;4.40;76.30
80279;DHT22;70683;52.492;13.416;2024-03-08T03:59:57;4.30;76.70
80279;DHT22;70683;52.492;13.416;2024-03-08T04:02:25;4.30;77.10
80279;DHT22;70683;52.492;13.416;2024-03-08T04:04:53;4.30;77.10
80279;DHT22;70683;52.492;13.416;2024-03-08T04:07:21;4.30;77.50
80279;DHT22;70683;52.492;13.416;2024-03-08T04:09:47;4.30;77.30
80279;DHT22;70683;52.492;13.416;2024-03-08T04:12:14;4.30;77.10
80279;DHT22;70683;52.492;13.416;2024-03-08T04:14:42;4.20;77.50
80279;DHT22;70683;52.492;13.416;2024-03-08T04:17:09;4.20;77.60
80279;DHT22;70683;52.492;13.416;2024-03-08T04:19:37;4.10;78.20
80279;DHT22;70683;52.492;13.416;2024-03-08T04:22:06;4.10;78.30
80279;DHT22;70683;52.492;13.416;2024-03-08T04:24:33;4.00;78.30
80279;DHT22;70683;52.492;13.416;2024-03-08T04:27:00;4.10;79.00
80279;DHT22;70683;52.492;13.416;2024-03-08T04:29:26;4.10;78.60
80279;DHT22;70683;52.492;13.416;2024-03-08T04:31:53;4.10;78.40
80279;DHT22;70683;52.492;13.416;2024-03-08T04:34:21;4.00;78.60
80279;DHT22;70683;52.492;13.416;2024-03-08T04:36:48;4.00;79.10
80279;DHT22;70683;52.492;13.416;2024-03-08T04:39:15;4.00;79.40
80279;DHT22;70683;52.492;13.416;2024-03-08T04:41:42;4.00;79.20
80279;DHT22;70683;52.492;13.416;2024-03-08T04:44:11;4.10;78.60
80279;DHT22;70683;52.492;13.416;2024-03-08T04:46:38;4.00;78.90
80279;DHT22;70683;52.492;13.416;2024-03-08T04:49:05;4.00;78.90
80279;DHT22;70683;52.492;13.416;2024-03-08T04:51:33;3.90;79.20
80279;DHT22;70683;52.492;13.416;2024-03-08T04:54:00;3.80;80.30
80279;DHT22;70683;52.492;13.416;2024-03-08T04:56:26;3.90;79.80
80279;DHT22;70683;52.492;13.416;2024-03-08T04:58:53;3.90;80.10
80279;DHT22;70683;52.492;13.416;2024-03-08T05:01:19;3.80;80.50
80279;DHT22;70683;52.492;13.416;2024-03-08T05:03:46;3.80;80.40
80279;DHT22;70683;52.492;13.416;2024-03-08T05:06:15;3.80;80.70
80279;DHT22;70683;52.492;13.416;2024-03-08T05:08:42;3.80;80.70
80279;DHT22;70683;52.492;13.416;2024-03-08T05:11:09;3.80;80.70
80279;DHT22;70683;52.492;13.416;2024-03-08T05:13:35;3.80;80.90
80279;DHT22;70683;52.492;13.416;2024-03-08T05:16:04;3.80;81.00
80279;DHT22;70683;52.492;13.416;2024-03-08T05:18:30;3.80;81.00
80279;DHT22;70683;52.492;13.416;2024-03-08T05:20:58;3.80;81.00
80279;DHT22;70683;52.492;13.416;2024-03-08T05:23:24;3.80;81.20
80279;DHT22;70683;52.492;13.416;2024-03-08T05:25:51;3.70;81.10
80279;DHT22;70683;52.492;13.416;2024-03-08T05:28:18;3.60;81.60
80279;DHT22;70683;52.492;13.416;2024-03-08T05:30:46;3.60;82.10
80279;DHT22;70683;52.492;13.416;2024-03-08T05:33:12;3.60;82.40
80279;DHT22;70683;52.492;13.416;2024-03-08T05:35:40;3.60;81.90
80279;DHT22;70683;52.492;13.416;2024-03-08T05:38:07;3.60;82.00
80279;DHT22;70683;52.492;13.416;2024-03-08T05:40:33;3.60;82.30
80279;DHT22;70683;52.492;13.416;2024-03-08T05:43:00;3.60;82.30
80279;DHT22;70683;52.492;13.416;2024-03-08T05:45:27;3.60;82.50
80279;DHT22;70683;52.492;13.416;2024-03-08T05:47:54;3.70;82.30
80279;DHT22;70683;52.492;13.416;2024-03-08T05:50:20;3.70;82.50
80279;DHT22;70683;52.492;13.416;2024-03-08T05:52:47;3.80;82.40
80279;DHT22;70683;52.492;13.416;2024-03-08T05:55:15;3.80;82.00
80279;DHT22;70683;52.492;13.416;2024-03-08T05:57:42;3.70;82.00
80279;DHT22;70683;52.492;13.416;2024-03-08T06:00:10;3.70;82.60
80279;DHT22;70683;52.492;13.416;2024-03-08T06:02:38;3.70;82.10
80279;DHT22;70683;52.492;13.416;2024-03-08T06:05:10;3.70;82.40
80279;DHT22;70683;52.492;13.416;2024-03-08T06:07:37;3.70;82.40
80279;DHT22;70683;52.492;13.416;2024-03-08T06:10:09;3.80;82.60
80279;DHT22;70683;52.492;13.416;2024-03-08T06:12:38;3.70;82.30
80279;DHT22;70683;52.492;13.416;2024-03-08T06:15:08;3.80;82.60
80279;DHT22;70683;52.492;13.416;2024-03-08T06:17:37;3.80;82.10
80279;DHT22;70683;52.492;13.416;2024-03-08T06:20:04;3.80;81.90
80279;DHT22;70683;52.492;13.416;2024-03-08T06:22:32;3.80;81.50
80279;DHT22;70683;52.492;13.416;2024-03-08T06:24:59;3.80;81.70
80279;DHT22;70683;52.492;13.416;2024-03-08T06:27:27;3.80;81.90
80279;DHT22;70683;52.492;13.416;2024-03-08T06:29:53;3.80;81.70
80279;DHT22;70683;52.492;13.416;2024-03-08T06:32:20;3.80;81.80
80279;DHT22;70683;52.492;13.416;2024-03-08T06:34:47;3.90;81.60
80279;DHT22;70683;52.492;13.416;2024-03-08T06:37:13;3.80;81.50
80279;DHT22;70683;52.492;13.416;2024-03-08T06:39:40;3.90;81.70
80279;DHT22;70683;52.492;13.416;2024-03-08T06:42:07;3.90;81.50
80279;DHT22;70683;52.492;13.416;2024-03-08T06:44:36;4.00;81.60
80279;DHT22;70683;52.492;13.416;2024-03-08T06:47:04;4.00;80.90
80279;DHT22;70683;52.492;13.416;2024-03-08T06:49:32;4.10;80.80
80279;DHT22;70683;52.492;13.416;2024-03-08T06:51:58;4.10;80.10
80279;DHT22;70683;52.492;13.416;2024-03-08T06:54:25;4.20;79.90
80279;DHT22;70683;52.492;13.416;2024-03-08T06:56:52;4.20;79.50
80279;DHT22;70683;52.492;13.416;2024-03-08T06:59:18;4.10;79.80
80279;DHT22;70683;52.492;13.416;2024-03-08T07:01:45;4.10;80.30
80279;DHT22;70683;52.492;13.416;2024-03-08T07:04:12;4.10;80.10
80279;DHT22;70683;52.492;13.416;2024-03-08T07:06:39;4.10;79.90
80279;DHT22;70683;52.492;13.416;2024-03-08T07:09:06;4.10;80.40
80279;DHT22;70683;52.492;13.416;2024-03-08T07:11:33;4.00;80.60
80279;DHT22;70683;52.492;13.416;2024-03-08T07:14:00;4.20;80.10
80279;DHT22;70683;52.492;13.416;2024-03-08T07:16:29;4.30;79.50
80279;DHT22;70683;52.492;13.416;2024-03-08T07:18:56;4.40;78.80
80279;DHT22;70683;52.492;13.416;2024-03-08T07:21:24;4.40;78.90
80279;DHT22;70683;52.492;13.416;2024-03-08T07:23:52;4.50;78.80
80279;DHT22;70683;52.492;13.416;2024-03-08T07:26:21;4.60;78.70
80279;DHT22;70683;52.492;13.416;2024-03-08T07:28:48;4.60;77.70
80279;DHT22;70683;52.492;13.416;2024-03-08T07:31:15;4.70;76.90
80279;DHT22;70683;52.492;13.416;2024-03-08T07:34:00;4.80;76.80
80279;DHT22;70683;52.492;13.416;2024-03-08T07:36:29;5.10;76.00
80279;DHT22;70683;52.492;13.416;2024-03-08T07:38:55;5.20;75.40
80279;DHT22;70683;52.492;13.416;2024-03-08T07:41:23;5.20;74.60
80279;DHT22;70683;52.492;13.416;2024-03-08T07:43:50;5.30;73.50
80279;DHT22;70683;52.492;13.416;2024-03-08T07:46:18;5.40;73.50
80279;DHT22;70683;52.492;13.416;2024-03-08T07:48:45;5.50;73.70
80279;DHT22;70683;52.492;13.416;2024-03-08T07:51:12;5.60;73.30
80279;DHT22;70683;52.492;13.416;2024-03-08T07:53:39;5.80;73.40
80279;DHT22;70683;52.492;13.416;2024-03-08T07:56:07;5.90;72.70
80279;DHT22;70683;52.492;13.416;2024-03-08T07:58:35;6.20;71.60
80279;DHT22;70683;52.492;13.416;2024-03-08T08:01:02;6.50;70.30
80279;DHT22;70683;52.492;13.416;2024-03-08T08:03:28;6.50;69.20
80279;DHT22;70683;52.492;13.416;2024-03-08T08:05:55;6.90;69.30
80279;DHT22;70683;52.492;13.416;2024-03-08T08:08:22;7.40;67.50
80279;DHT22;70683;52.492;13.416;2024-03-08T08:10:49;8.30;65.40
80279;DHT22;70683;52.492;13.416;2024-03-08T08:13:15;9.00;62.60
80279;DHT22;70683;52.492;13.416;2024-03-08T08:15:44;9.80;59.80
80279;DHT22;70683;52.492;13.416;2024-03-08T08:18:11;10.40;56.90
80279;DHT22;70683;52.492;13.416;2024-03-08T08:20:40;10.90;54.90
80279;DHT22;70683;52.492;13.416;2024-03-08T08:23:06;11.30;54.10
80279;DHT22;70683;52.492;13.416;2024-03-08T08:25:34;11.70;53.20
80279;DHT22;70683;52.492;13.416;2024-03-08T08:28:01;12.20;51.20
80279;DHT22;70683;52.492;13.416;2024-03-08T08:30:30;12.50;50.10
80279;DHT22;70683;52.492;13.416;2024-03-08T08:32:58;12.40;48.30
80279;DHT22;70683;52.492;13.416;2024-03-08T08:35:26;12.20;49.00
80279;DHT22;70683;52.492;13.416;2024-03-08T08:37:54;12.60;49.00
80279;DHT22;70683;52.492;13.416;2024-03-08T08:40:21;12.90;48.40
80279;DHT22;70683;52.492;13.416;2024-03-08T08:42:49;12.80;48.10
80279;DHT22;70683;52.492;13.416;2024-03-08T08:45:15;12.70;46.60
80279;DHT22;70683;52.492;13.416;2024-03-08T08:47:44;12.30;47.40
80279;DHT22;70683;52.492;13.416;2024-03-08T08:50:11;12.40;48.90
80279;DHT22;70683;52.492;13.416;2024-03-08T08:52:38;12.50;48.10
80279;DHT22;70683;52.492;13.416;2024-03-08T08:55:06;12.60;47.70
80279;DHT22;70683;52.492;13.416;2024-03-08T08:57:33;12.40;47.00
80279;DHT22;70683;52.492;13.416;2024-03-08T09:00:00;12.50;47.40
80279;DHT22;70683;52.492;13.416;2024-03-08T09:02:26;12.20;46.40
80279;DHT22;70683;52.492;13.416;2024-03-08T09:04:53;11.90;48.10
80279;DHT22;70683;52.492;13.416;2024-03-08T09:07:20;11.80;48.40
80279;DHT22;70683;52.492;13.416;2024-03-08T09:09:46;11.20;49.70
80279;DHT22;70683;52.492;13.416;2024-03-08T09:12:14;11.30;50.30
80279;DHT22;70683;52.492;13.416;2024-03-08T09:14:42;11.70;49.50
80279;DHT22;70683;52.492;13.416;2024-03-08T09:17:08;12.30;48.10
80279;DHT22;70683;52.492;13.416;2024-03-08T09:19:35;12.80;46.60
80279;DHT22;70683;52.492;13.416;2024-03-08T09:22:04;12.80;45.40
80279;DHT22;70683;52.492;13.416;2024-03-08T09:24:30;13.00;44.80
80279;DHT22;70683;52.492;13.416;2024-03-08T09:26:57;12.90;45.10
80279;DHT22;70683;52.492;13.416;2024-03-08T09:29:25;13.00;43.90
80279;DHT22;70683;52.492;13.416;2024-03-08T09:31:52;13.00;44.10
80279;DHT22;70683;52.492;13.416;2024-03-08T09:34:18;13.10;44.40
80279;DHT22;70683;52.492;13.416;2024-03-08T09:36:45;13.40;44.00
80279;DHT22;70683;52.492;13.416;2024-03-08T09:39:13;13.50;43.00
80279;DHT22;70683;52.492;13.416;2024-03-08T09:41:43;14.10;42.80
80279;DHT22;70683;52.492;13.416;2024-03-08T09:44:10;14.20;41.80
80279;DHT22;70683;52.492;13.416;2024-03-08T09:46:37;14.50;41.40
80279;DHT22;70683;52.492;13.416;2024-03-08T09:49:04;14.80;40.70
80279;DHT22;70683;52.492;13.416;2024-03-08T09:51:33;14.30;40.20
80279;DHT22;70683;52.492;13.416;2024-03-08T09:54:02;14.50;40.70
80279;DHT22;70683;52.492;13.416;2024-03-08T09:56:32;14.50;40.40
80279;DHT22;70683;52.492;13.416;2024-03-08T09:59:00;14.60;39.70
80279;DHT22;70683;52.492;13.416;2024-03-08T10:01:32;14.70;39.90
80279;DHT22;70683;52.492;13.416;2024-03-08T10:03:59;15.20;40.10
80279;DHT22;70683;52.492;13.416;2024-03-08T10:06:25;15.40;38.10
80279;DHT22;70683;52.492;13.416;2024-03-08T10:08:52;15.20;36.90
80279;DHT22;70683;52.492;13.416;2024-03-08T10:11:19;14.60;37.90
80279;DHT22;70683;52.492;13.416;2024-03-08T10:13:47;14.10;39.20
80279;DHT22;70683;52.492;13.416;2024-03-08T10:16:14;13.80;40.30
80279;DHT22;70683;52.492;13.416;2024-03-08T10:18:44;13.50;41.20
80279;DHT22;70683;52.492;13.416;2024-03-08T10:21:11;13.10;43.00
80279;DHT22;70683;52.492;13.416;2024-03-08T10:23:39;12.80;44.20
80279;DHT22;70683;52.492;13.416;2024-03-08T10:26:13;12.80;44.70
80279;DHT22;70683;52.492;13.416;2024-03-08T10:28:42;12.70;44.00
80279;DHT22;70683;52.492;13.416;2024-03-08T10:31:09;12.60;44.70
80279;DHT22;70683;52.492;13.416;2024-03-08T10:33:36;12.30;45.60
80279;DHT22;70683;52.492;13.416;2024-03-08T10:36:06;12.30;45.20
80279;DHT22;70683;52.492;13.416;2024-03-08T10:38:36;12.30;45.60
80279;DHT22;70683;52.492;13.416;2024-03-08T10:41:05;12.30;45.20
80279;DHT22;70683;52.492;13.416;2024-03-08T10:43:47;12.20;45.40
80279;DHT22;70683;52.492;13.416;2024-03-08T10:46:33;12.00;44.80
80279;DHT22;70683;52.492;13.416;2024-03-08T10:49:00;11.70;45.30
80279;DHT22;70683;52.492;13.416;2024-03-08T10:51:30;11.60;46.00
80279;DHT22;70683;52.492;13.416;2024-03-08T10:53:58;11.50;46.40
80279;DHT22;70683;52.492;13.416;2024-03-08T10:56:25;11.50;45.70
80279;DHT22;70683;52.492;13.416;2024-03-08T10:58:54;11.40;45.40
80279;DHT22;70683;52.492;13.416;2024-03-08T11:01:21;11.30;45.20
80279;DHT22;70683;52.492;13.416;2024-03-08T11:03:50;11.30;45.60
80279;DHT22;70683;52.492;13.416;2024-03-08T11:06:22;11.30;46.60
80279;DHT22;70683;52.492;13.416;2024-03-08T11:08:50;11.30;46.70
80279;DHT22;70683;52.492;13.416;2024-03-08T11:11:24;11.50;46.30
80279;DHT22;70683;52.492;13.416;2024-03-08T11:13:56;11.60;46.10
80279;DHT22;70683;52.492;13.416;2024-03-08T11:16:40;11.80;46.00
80279;DHT22;70683;52.492;13.416;2024-03-08T11:19:25;11.70;45.50
80279;DHT22;70683;52.492;13.416;2024-03-08T11:21:58;11.70;44.70
80279;DHT22;70683;52.492;13.416;2024-03-08T11:24:25;11.50;44.60
80279;DHT22;70683;52.492;13.416;2024-03-08T11:26:57;11.40;45.00
80279;DHT22;70683;52.492;13.416;2024-03-08T11:29:35;11.30;44.70
80279;DHT22;70683;52.492;13.416;2024-03-08T11:32:05;11.20;45.80
80279;DHT22;70683;52.492;13.416;2024-03-08T11:34:32;11.20;44.80
80279;DHT22;70683;52.492;13.416;2024-03-08T11:36:59;11.20;45.30
80279;DHT22;70683;52.492;13.416;2024-03-08T11:39:26;11.20;44.70
80279;DHT22;70683;52.492;13.416;2024-03-08T11:41:55;11.30;43.80
80279;DHT22;70683;52.492;13.416;2024-03-08T11:44:21;11.50;43.60
80279;DHT22;70683;52.492;13.416;2024-03-08T11:46:48;11.30;44.10
80279;DHT22;70683;52.492;13.416;2024-03-08T11:49:15;11.40;44.00
80279;DHT22;70683;52.492;13.416;2024-03-08T11:51:41;11.50;44.40
80279;DHT22;70683;52.492;13.416;2024-03-08T11:54:12;11.60;43.90
80279;DHT22;70683;52.492;13.416;2024-03-08T11:56:39;11.50;44.00
80279;DHT22;70683;52.492;13.416;2024-03-08T11:59:11;11.50;44.60
80279;DHT22;70683;52.492;13.416;2024-03-08T12:01:39;11.50;44.20
80279;DHT22;70683;52.492;13.416;2024-03-08T12:04:05;11.50;44.50
80279;DHT22;70683;52.492;13.416;2024-03-08T12:06:38;11.50;45.10
80279;DHT22;70683;52.492;13.416;2024-03-08T12:09:09;11.50;45.70
80279;DHT22;70683;52.492;13.416;2024-03-08T12:11:36;11.60;45.00
80279;DHT22;70683;52.492;13.416;2024-03-08T12:14:04;11.60;45.20
80279;DHT22;70683;52.492;13.416;2024-03-08T12:16:32;11.70;45.50
80279;DHT22;70683;52.492;13.416;2024-03-08T12:18:59;11.70;45.40
80279;DHT22;70683;52.492;13.416;2024-03-08T12:21:27;11.50;45.50
80279;DHT22;70683;52.492;13.416;2024-03-08T12:24:05;11.60;45.60
80279;DHT22;70683;52.492;13.416;2024-03-08T12:26:36;11.50;46.20
80279;DHT22;70683;52.492;13.416;2024-03-08T12:29:15;11.40;46.20
80279;DHT22;70683;52.492;13.416;2024-03-08T12:31:51;11.40;46.10
80279;DHT22;70683;52.492;13.416;2024-03-08T12:34:16;11.30;45.60
80279;DHT22;70683;52.492;13.416;2024-03-08T12:36:48;11.20;45.50
80279;DHT22;70683;52.492;13.416;2024-03-08T12:39:17;11.10;46.10
80279;DHT22;70683;52.492;13.416;2024-03-08T12:41:59;11.10;46.80
80279;DHT22;70683;52.492;13.416;2024-03-08T12:44:26;11.10;46.40
80279;DHT22;70683;52.492;13.416;2024-03-08T12:46:58;11.10;46.60
80279;DHT22;70683;52.492;13.416;2024-03-08T12:49:25;11.00;46.70
80279;DHT22;70683;52.492;13.416;2024-03-08T12:51:53;11.00;46.20
80279;DHT22;70683;52.492;13.416;2024-03-08T12:54:19;11.00;45.40
80279;DHT22;70683;52.492;13.416;2024-03-08T12:56:48;11.00;46.40
80279;DHT22;70683;52.492;13.416;2024-03-08T12:59:16;11.00;47.00
80279;DHT22;70683;52.492;13.416;2024-03-08T13:01:42;11.00;46.90
80279;DHT22;70683;52.492;13.416;2024-03-08T13:04:09;11.10;46.80
80279;DHT22;70683;52.492;13.416;2024-03-08T13:06:37;11.20;46.20
80279;DHT22;70683;52.492;13.416;2024-03-08T13:09:04;11.20;46.00
80279;DHT22;70683;52.492;13.416;2024-03-08T13:11:32;11.30;45.60
80279;DHT22;70683;52.492;13.416;2024-03-08T13:14:04;11.10;45.50
80279;DHT22;70683;52.492;13.416;2024-03-08T13:16:31;11.00;46.50
80279;DHT22;70683;52.492;13.416;2024-03-08T13:18:58;11.00;47.50
80279;DHT22;70683;52.492;13.416;2024-03-08T13:21:25;10.90;47.10
80279;DHT22;70683;52.492;13.416;2024-03-08T13:23:52;11.00;47.10
80279;DHT22;70683;52.492;13.416;2024-03-08T13:26:19;11.00;47.10
80279;DHT22;70683;52.492;13.416;2024-03-08T13:28:46;10.90;47.30
80279;DHT22;70683;52.492;13.416;2024-03-08T13:31:15;10.90;47.90
80279;DHT22;70683;52.492;13.416;2024-03-08T13:33:41;10.90;47.50
80279;DHT22;70683;52.492;13.416;2024-03-08T13:36:09;11.00;47.20
80279;DHT22;70683;52.492;13.416;2024-03-08T13:38:37;11.10;47.00
80279;DHT22;70683;52.492;13.416;2024-03-08T13:41:04;11.10;46.70
80279;DHT22;70683;52.492;13.416;2024-03-08T13:43:30;11.00;46.10
80279;DHT22;70683;52.492;13.416;2024-03-08T13:45:59;11.00;46.60
80279;DHT22;70683;52.492;13.416;2024-03-08T13:48:26;11.10;46.50
80279;DHT22;70683;52.492;13.416;2024-03-08T13:50:52;11.00;46.30
80279;DHT22;70683;52.492;13.416;2024-03-08T13:53:19;11.00;46.90
80279;DHT22;70683;52.492;13.416;2024-03-08T13:55:46;11.10;46.90
80279;DHT22;70683;52.492;13.416;2024-03-08T13:58:12;11.10;47.00
80279;DHT22;70683;52.492;13.416;2024-03-08T14:00:40;11.20;46.60
80279;DHT22;70683;52.492;13.416;2024-03-08T14:03:09;11.20;45.60
80279;DHT22;70683;52.492;13.416;2024-03-08T14:05:40;11.10;45.90
80279;DHT22;70683;52.492;13.416;2024-03-08T14:08:09;11.00;46.50
80279;DHT22;70683;52.492;13.416;2024-03-08T14:10:38;11.00;45.90
80279;DHT22;70683;52.492;13.416;2024-03-08T14:13:05;11.00;46.00
80279;DHT22;70683;52.492;13.416;2024-03-08T14:15:33;11.00;45.70
80279;DHT22;70683;52.492;13.416;2024-03-08T14:18:01;11.00;45.50
80279;DHT22;70683;52.492;13.416;2024-03-08T14:20:28;11.00;46.10
80279;DHT22;70683;52.492;13.416;2024-03-08T14:22:55;11.00;45.50
80279;DHT22;70683;52.492;13.416;2024-03-08T14:25:23;10.90;45.90
80279;DHT22;70683;52.492;13.416;2024-03-08T14:27:50;10.90;46.70
80279;DHT22;70683;52.492;13.416;2024-03-08T14:30:20;10.90;46.20
80279;DHT22;70683;52.492;13.416;2024-03-08T14:32:52;11.10;45.50
80279;DHT22;70683;52.492;13.416;2024-03-08T14:35:19;11.00;45.30
80279;DHT22;70683;52.492;13.416;2024-03-08T14:37:46;10.90;46.20
80279;DHT22;70683;52.492;13.416;2024-03-08T14:40:13;10.80;46.60
80279;DHT22;70683;52.492;13.416;2024-03-08T14:42:41;10.80;46.70
80279;DHT22;70683;52.492;13.416;2024-03-08T14:45:09;10.80;46.40
80279;DHT22;70683;52.492;13.416;2024-03-08T14:47:35;10.90;46.70
80279;DHT22;70683;52.492;13.416;2024-03-08T14:50:02;10.90;46.60
80279;DHT22;70683;52.492;13.416;2024-03-08T14:52:28;10.90;46.60
80279;DHT22;70683;52.492;13.416;2024-03-08T14:54:55;10.80;46.40
80279;DHT22;70683;52.492;13.416;2024-03-08T14:57:22;10.90;46.50
80279;DHT22;70683;52.492;13.416;2024-03-08T14:59:49;10.80;46.40
80279;DHT22;70683;52.492;13.416;2024-03-08T15:02:16;11.00;45.80
80279;DHT22;70683;52.492;13.416;2024-03-08T15:04:47;11.00;44.80
80279;DHT22;70683;52.492;13.416;2024-03-08T15:07:15;10.90;45.70
80279;DHT22;70683;52.492;13.416;2024-03-08T15:09:44;10.80;45.40
80279;DHT22;70683;52.492;13.416;2024-03-08T15:12:10;10.90;45.30
80279;DHT22;70683;52.492;13.416;2024-03-08T15:14:40;10.90;45.40
80279;DHT22;70683;52.492;13.416;2024-03-08T15:17:08;10.90;45.90
80279;DHT22;70683;52.492;13.416;2024-03-08T15:19:37;10.90;45.20
80279;DHT22;70683;52.492;13.416;2024-03-08T15:22:04;10.80;45.60
80279;DHT22;70683;52.492;13.416;2024-03-08T15:24:30;10.80;45.20
80279;DHT22;70683;52.492;13.416;2024-03-08T15:26:57;10.90;44.90
80279;DHT22;70683;52.492;13.416;2024-03-08T15:29:25;10.90;44.90